Time;durP1;ratioP1;P1;durP2;ratioP2;P2;SDS_P1;SDS_P2;PMS_P1;PMS_P2;Temp;Humidity;BMP_temperature;BMP_pressure;BME280_temperature;BME280_humidity;BME280_pressure;Samples;Min_cycle;Max_cycle;Signal;HPM_P1;HPM_P2
2023/07/12 01:27:43;;;;;;;9.43;6.63;;;;;;;;;;4659422;30;20534;-92
2023/07/12 01:52:22;;;;;;;8.82;6.43;;;;;;;;;;4798862;29;20046;-88
2023/07/12 01:55:27;;;;;;;9.40;6.38;;;;;;;;;;4855201;29;20056;-82
2023/07/12 01:58:13;;;;;;;8.80;6.05;;;;;;;;;;4894752;29;20056;-84
2023/07/12 02:01:00;;;;;;;14.15;7.45;;;;;;;;;;4898250;29;20056;-84
2023/07/12 02:03:45;;;;;;;9.50;6.45;;;;;;;;;;4892571;29;20044;-84
2023/07/12 02:06:30;;;;;;;11.45;6.50;;;;;;;;;;4900271;29;20052;-84
2023/07/12 02:09:16;;;;;;;13.90;7.28;;;;;;;;;;4886202;29;20054;-84
2023/07/12 02:12:03;;;;;;;9.75;6.57;;;;;;;;;;4891292;29;20045;-86
2023/07/12 02:14:54;;;;;;;8.73;6.55;;;;;;;;;;4891003;29;20049;-87
2023/07/12 02:17:40;;;;;;;8.77;6.82;;;;;;;;;;4898610;29;20523;-87
2023/07/12 02:20:25;;;;;;;12.60;7.07;;;;;;;;;;4890479;29;20053;-85
2023/07/12 02:23:11;;;;;;;12.13;6.93;;;;;;;;;;4883778;29;20115;-85
2023/07/12 02:25:57;;;;;;;11.23;6.53;;;;;;;;;;4898491;29;20041;-84
2023/07/12 02:28:42;;;;;;;10.45;7.35;;;;;;;;;;4898787;29;20044;-84
2023/07/12 02:31:29;;;;;;;10.80;6.78;;;;;;;;;;4890395;29;20487;-84
2023/07/12 02:34:14;;;;;;;11.15;6.75;;;;;;;;;;4899491;29;20040;-84
2023/07/12 02:37:00;;;;;;;14.73;7.93;;;;;;;;;;4883316;29;20041;-85
2023/07/12 02:39:46;;;;;;;10.07;6.85;;;;;;;;;;4889879;29;20045;-85
2023/07/12 02:42:31;;;;;;;12.93;8.20;;;;;;;;;;4897855;29;20056;-84
2023/07/12 02:45:17;;;;;;;13.20;7.60;;;;;;;;;;4887213;29;20036;-84
2023/07/12 02:48:03;;;;;;;11.02;7.30;;;;;;;;;;4900037;29;20049;-84
2023/07/12 02:50:48;;;;;;;11.25;6.95;;;;;;;;;;4898670;29;20048;-85
2023/07/12 02:53:34;;;;;;;10.85;7.53;;;;;;;;;;4894097;29;20060;-84
2023/07/12 02:56:19;;;;;;;13.13;8.13;;;;;;;;;;4900631;29;20495;-84
2023/07/12 02:59:04;;;;;;;11.50;7.35;;;;;;;;;;4885965;29;20054;-84
2023/07/12 03:01:54;;;;;;;13.40;7.47;;;;;;;;;;4897338;29;20048;-84
2023/07/12 03:04:40;;;;;;;12.82;8.00;;;;;;;;;;4897296;29;20041;-84
2023/07/12 03:07:25;;;;;;;12.35;7.53;;;;;;;;;;4889153;29;20044;-84
2023/07/12 03:10:11;;;;;;;12.32;7.35;;;;;;;;;;4883842;29;20040;-84
2023/07/12 03:12:57;;;;;;;14.40;7.53;;;;;;;;;;4889207;29;20048;-84
2023/07/12 03:15:42;;;;;;;11.80;7.57;;;;;;;;;;4898546;29;20056;-84
2023/07/12 03:18:28;;;;;;;13.70;7.80;;;;;;;;;;4897635;29;20502;-84
2023/07/12 03:21:13;;;;;;;10.73;7.53;;;;;;;;;;4885026;29;20044;-84
2023/07/12 03:24:01;;;;;;;12.60;7.90;;;;;;;;;;4900039;29;20398;-83
2023/07/12 03:26:46;;;;;;;12.73;8.00;;;;;;;;;;4884348;29;20391;-83
2023/07/12 03:29:32;;;;;;;11.73;7.13;;;;;;;;;;4883552;29;20045;-84
2023/07/12 03:32:19;;;;;;;11.77;7.75;;;;;;;;;;4897757;29;20048;-83
2023/07/12 03:35:05;;;;;;;12.43;7.22;;;;;;;;;;4911238;29;20048;-84
2023/07/12 03:37:50;;;;;;;13.43;7.68;;;;;;;;;;4906916;29;20499;-84
2023/07/12 03:40:35;;;;;;;12.38;7.30;;;;;;;;;;4890314;29;20401;-84
2023/07/12 03:43:22;;;;;;;12.82;7.07;;;;;;;;;;4898743;29;20631;-84
2023/07/12 03:46:08;;;;;;;9.15;7.00;;;;;;;;;;4897100;29;20044;-85
2023/07/12 03:48:53;;;;;;;9.02;6.63;;;;;;;;;;4896707;29;20064;-85
2023/07/12 03:51:39;;;;;;;9.73;6.97;;;;;;;;;;4888825;29;20403;-85
2023/07/12 03:54:25;;;;;;;11.75;7.15;;;;;;;;;;4902043;29;20048;-85
2023/07/12 03:57:10;;;;;;;12.23;7.13;;;;;;;;;;4888112;29;20048;-84
2023/07/12 03:59:56;;;;;;;8.55;6.60;;;;;;;;;;4897459;29;20060;-85
2023/07/12 04:02:41;;;;;;;11.98;7.13;;;;;;;;;;4889680;29;20056;-85
2023/07/12 04:05:27;;;;;;;13.00;7.57;;;;;;;;;;4893061;29;20508;-86
2023/07/12 04:08:12;;;;;;;12.07;7.55;;;;;;;;;;4898457;29;20048;-84
2023/07/12 04:10:58;;;;;;;16.10;7.97;;;;;;;;;;4898675;29;20057;-84
2023/07/12 04:13:43;;;;;;;18.05;7.75;;;;;;;;;;4892235;29;20080;-84
2023/07/12 04:16:30;;;;;;;22.17;7.90;;;;;;;;;;4879417;29;20052;-84
2023/07/12 04:19:15;;;;;;;11.40;7.63;;;;;;;;;;4898414;29;20056;-84
2023/07/12 04:22:00;;;;;;;14.75;8.05;;;;;;;;;;4890418;29;20049;-85
2023/07/12 04:24:50;;;;;;;12.30;7.38;;;;;;;;;;4897783;29;20041;-85
2023/07/12 04:27:37;;;;;;;19.95;7.47;;;;;;;;;;4882964;29;20044;-85
2023/07/12 04:30:22;;;;;;;17.63;7.93;;;;;;;;;;4889177;29;20044;-84
2023/07/12 04:33:07;;;;;;;12.10;8.18;;;;;;;;;;4897196;29;20053;-83
2023/07/12 04:35:53;;;;;;;16.65;8.43;;;;;;;;;;4897606;29;20048;-84
2023/07/12 04:38:39;;;;;;;14.82;7.80;;;;;;;;;;4888893;29;20060;-84
2023/07/12 04:41:25;;;;;;;13.07;7.82;;;;;;;;;;4884209;29;20056;-84
2023/07/12 04:44:10;;;;;;;11.55;7.38;;;;;;;;;;4898173;29;20483;-84
2023/07/12 04:46:55;;;;;;;11.30;7.95;;;;;;;;;;4901126;29;20040;-84
2023/07/12 04:49:41;;;;;;;16.45;7.90;;;;;;;;;;4901306;29;20056;-84
2023/07/12 04:52:27;;;;;;;14.57;7.32;;;;;;;;;;4899434;29;20052;-84
2023/07/12 04:55:22;;;;;;;12.15;7.60;;;;;;;;;;4891687;29;20057;-84
2023/07/12 04:58:30;;;;;;;11.60;7.32;;;;;;;;;;4900489;29;20060;-84
2023/07/12 05:01:15;;;;;;;16.13;7.53;;;;;;;;;;4895293;29;20070;-84
2023/07/12 05:04:01;;;;;;;14.95;7.30;;;;;;;;;;4901985;29;20056;-84
2023/07/12 05:06:46;;;;;;;12.75;7.93;;;;;;;;;;4903185;29;20391;-84
2023/07/12 05:09:32;;;;;;;14.65;8.00;;;;;;;;;;4904334;29;20040;-83
2023/07/12 05:12:18;;;;;;;17.05;7.25;;;;;;;;;;4901056;29;20052;-84
2023/07/12 05:15:04;;;;;;;11.75;7.63;;;;;;;;;;4901425;29;20044;-83
2023/07/12 05:17:50;;;;;;;13.63;7.22;;;;;;;;;;4903824;29;20048;-84
2023/07/12 05:20:36;;;;;;;14.05;7.03;;;;;;;;;;4900657;29;20070;-84
2023/07/12 05:23:22;;;;;;;14.25;7.07;;;;;;;;;;4893625;29;20044;-84
2023/07/12 05:26:07;;;;;;;16.83;6.78;;;;;;;;;;4900750;29;20070;-84
2023/07/12 05:28:52;;;;;;;12.15;7.00;;;;;;;;;;4887150;29;20049;-84
2023/07/12 05:31:38;;;;;;;13.43;6.65;;;;;;;;;;4901047;29;20045;-84
2023/07/12 05:34:23;;;;;;;8.57;6.32;;;;;;;;;;4905999;29;20414;-84
2023/07/12 05:37:10;;;;;;;17.75;6.85;;;;;;;;;;4901566;29;20482;-84
2023/07/12 05:39:56;;;;;;;15.65;6.53;;;;;;;;;;4900556;29;20044;-84
2023/07/12 05:42:41;;;;;;;10.23;6.47;;;;;;;;;;4899230;29;20060;-85
2023/07/12 05:45:27;;;;;;;10.68;6.35;;;;;;;;;;4885152;29;20056;-85
2023/07/12 05:48:12;;;;;;;13.40;6.95;;;;;;;;;;4912209;29;20048;-83
2023/07/12 05:51:00;;;;;;;15.95;6.78;;;;;;;;;;4910189;29;20036;-85
2023/07/12 05:53:45;;;;;;;11.20;6.70;;;;;;;;;;4901079;29;20048;-85
2023/07/12 05:56:31;;;;;;;12.75;6.75;;;;;;;;;;4892206;29;20048;-85
2023/07/12 05:59:18;;;;;;;17.17;6.70;;;;;;;;;;4900229;29;20048;-77
2023/07/12 06:02:11;;;;;;;10.05;6.05;;;;;;;;;;4899775;29;20403;-78
2023/07/12 06:04:56;;;;;;;11.05;6.60;;;;;;;;;;4899751;29;20505;-77
2023/07/12 06:07:41;;;;;;;16.92;6.68;;;;;;;;;;4904454;29;20053;-79
2023/07/12 06:10:27;;;;;;;10.80;6.47;;;;;;;;;;4884113;29;20045;-77
2023/07/12 06:13:13;;;;;;;15.13;7.25;;;;;;;;;;4899036;29;20048;-81
2023/07/12 06:15:58;;;;;;;17.15;7.30;;;;;;;;;;4899160;29;20044;-76
2023/07/12 06:18:44;;;;;;;21.77;7.90;;;;;;;;;;4905807;29;20052;-76
2023/07/12 06:21:29;;;;;;;15.57;7.28;;;;;;;;;;4891749;29;20045;-75
2023/07/12 06:24:14;;;;;;;9.77;6.97;;;;;;;;;;4899257;29;20048;-74
2023/07/12 06:26:59;;;;;;;12.00;6.93;;;;;;;;;;4885387;29;20040;-77
2023/07/12 06:29:47;;;;;;;9.98;6.53;;;;;;;;;;4905333;29;20056;-77
2023/07/12 06:32:33;;;;;;;13.95;7.20;;;;;;;;;;4899315;29;20044;-76
2023/07/12 06:35:18;;;;;;;10.43;6.70;;;;;;;;;;4899639;29;20048;-77
2023/07/12 06:38:04;;;;;;;11.70;6.80;;;;;;;;;;4904771;29;20053;-78
2023/07/12 06:40:49;;;;;;;16.08;6.30;;;;;;;;;;4898675;29;20479;-76
2023/07/12 06:43:35;;;;;;;9.90;6.32;;;;;;;;;;4897093;29;20044;-77
2023/07/12 06:46:24;;;;;;;10.38;6.82;;;;;;;;;;4897460;29;20390;-82
2023/07/12 06:49:10;;;;;;;12.93;6.88;;;;;;;;;;4889614;29;20045;-78
2023/07/12 06:51:57;;;;;;;14.30;6.47;;;;;;;;;;4897227;29;20052;-77
2023/07/12 06:54:43;;;;;;;13.73;9.05;;;;;;;;;;4903401;29;20048;-77
2023/07/12 06:57:28;;;;;;;14.30;8.68;;;;;;;;;;4896623;29;20053;-76
2023/07/12 07:00:14;;;;;;;10.55;7.65;;;;;;;;;;4903428;29;20052;-77
2023/07/12 07:02:59;;;;;;;14.23;6.72;;;;;;;;;;4896994;29;20052;-76
2023/07/12 07:05:46;;;;;;;8.85;6.50;;;;;;;;;;4903168;29;20052;-76
2023/07/12 07:08:31;;;;;;;15.63;7.25;;;;;;;;;;4896031;29;20044;-76
2023/07/12 07:11:17;;;;;;;8.98;6.07;;;;;;;;;;4896463;29;20044;-78
2023/07/12 07:14:03;;;;;;;9.80;5.93;;;;;;;;;;4902764;29;20053;-78
2023/07/12 07:16:48;;;;;;;9.68;6.40;;;;;;;;;;4902537;29;20493;-77
2023/07/12 07:19:33;;;;;;;9.80;6.63;;;;;;;;;;4896213;29;20056;-76
2023/07/12 07:22:19;;;;;;;10.50;6.45;;;;;;;;;;4903077;29;20040;-76
2023/07/12 07:25:06;;;;;;;11.75;5.70;;;;;;;;;;4896755;29;20045;-76
2023/07/12 07:27:51;;;;;;;11.35;5.90;;;;;;;;;;4896863;29;20044;-76
2023/07/12 07:30:37;;;;;;;11.15;6.18;;;;;;;;;;4903147;29;20049;-76
2023/07/12 07:33:23;;;;;;;10.43;6.10;;;;;;;;;;4897437;29;20483;-76
2023/07/12 07:36:12;;;;;;;9.80;6.35;;;;;;;;;;4896552;29;20044;-76
2023/07/12 07:38:57;;;;;;;10.48;5.68;;;;;;;;;;4904362;29;20048;-77
2023/07/12 07:41:42;;;;;;;13.30;5.70;;;;;;;;;;4905077;29;20044;-77
2023/07/12 07:44:28;;;;;;;8.43;5.90;;;;;;;;;;4898235;29;20041;-75
2023/07/12 07:47:14;;;;;;;13.38;6.10;;;;;;;;;;4898307;29;20040;-77
2023/07/12 07:49:59;;;;;;;11.80;5.97;;;;;;;;;;4898718;29;20048;-77
2023/07/12 07:52:44;;;;;;;13.82;5.88;;;;;;;;;;4898495;29;20064;-75
2023/07/12 07:55:30;;;;;;;9.98;5.78;;;;;;;;;;4904875;29;20048;-75
2023/07/12 07:58:16;;;;;;;12.32;5.45;;;;;;;;;;4897688;29;20403;-75
2023/07/12 08:01:03;;;;;;;7.28;5.35;;;;;;;;;;4898164;29;20045;-78
2023/07/12 08:03:49;;;;;;;8.65;5.72;;;;;;;;;;4904555;29;20486;-75
2023/07/12 08:06:35;;;;;;;16.98;5.90;;;;;;;;;;4904689;29;20040;-76
2023/07/12 08:09:20;;;;;;;8.07;5.00;;;;;;;;;;4904258;29;20045;-76
2023/07/12 08:12:07;;;;;;;10.18;6.10;;;;;;;;;;4897111;29;20394;-76
2023/07/12 08:14:52;;;;;;;13.05;6.43;;;;;;;;;;4904072;29;20048;-76
2023/07/12 08:17:38;;;;;;;9.15;5.97;;;;;;;;;;4876796;29;20045;-76
2023/07/12 08:20:24;;;;;;;14.07;6.63;;;;;;;;;;4879183;29;20048;-76
2023/07/12 08:23:10;;;;;;;13.75;7.20;;;;;;;;;;4893636;29;20057;-76
2023/07/12 08:25:55;;;;;;;12.95;6.70;;;;;;;;;;4887835;29;20044;-76
2023/07/12 08:28:41;;;;;;;11.00;6.35;;;;;;;;;;4893722;29;20057;-76
2023/07/12 08:31:27;;;;;;;14.90;7.05;;;;;;;;;;4881039;29;20044;-76
2023/07/12 08:34:12;;;;;;;15.00;6.75;;;;;;;;;;4879980;29;20487;-76
2023/07/12 08:36:58;;;;;;;14.40;6.68;;;;;;;;;;4893442;29;20048;-77
2023/07/12 08:39:43;;;;;;;11.18;6.25;;;;;;;;;;4893333;29;20398;-77
2023/07/12 08:42:39;;;;;;;10.18;6.03;;;;;;;;;;4880667;29;20040;-76
2023/07/12 08:45:28;;;;;;;10.25;6.40;;;;;;;;;;4880487;29;20414;-77
2023/07/12 08:48:23;;;;;;;12.73;6.45;;;;;;;;;;4880645;29;20048;-77
2023/07/12 08:51:15;;;;;;;12.20;5.50;;;;;;;;;;4893360;29;20052;-76
2023/07/12 08:54:02;;;;;;;10.15;6.15;;;;;;;;;;4880378;29;20044;-76
2023/07/12 08:56:49;;;;;;;8.93;5.57;;;;;;;;;;4893347;29;20049;-77
2023/07/12 08:59:35;;;;;;;9.70;5.45;;;;;;;;;;4874554;29;20056;-77
2023/07/12 09:02:23;;;;;;;9.38;5.70;;;;;;;;;;4879550;29;20048;-77
2023/07/12 09:05:14;;;;;;;6.88;5.32;;;;;;;;;;4880168;29;20044;-77
2023/07/12 09:08:10;;;;;;;9.07;5.60;;;;;;;;;;4880526;29;20037;-77
2023/07/12 09:10:57;;;;;;;8.15;5.45;;;;;;;;;;4892736;29;20053;-77
2023/07/12 09:13:46;;;;;;;9.18;5.85;;;;;;;;;;4880156;29;20395;-77
2023/07/12 09:16:34;;;;;;;10.45;5.80;;;;;;;;;;4879945;29;20040;-77
2023/07/12 09:19:27;;;;;;;10.73;5.50;;;;;;;;;;4879925;29;20048;-77
2023/07/12 09:22:15;;;;;;;9.38;5.60;;;;;;;;;;4893205;29;20040;-77
2023/07/12 09:25:01;;;;;;;7.60;5.03;;;;;;;;;;4879933;29;20048;-77
2023/07/12 09:27:48;;;;;;;10.27;4.75;;;;;;;;;;4892851;29;20052;-77
2023/07/12 09:30:34;;;;;;;6.80;5.50;;;;;;;;;;4892867;29;20048;-77
2023/07/12 09:33:23;;;;;;;11.27;4.93;;;;;;;;;;4879179;29;20056;-77
2023/07/12 09:36:17;;;;;;;8.90;5.10;;;;;;;;;;4879307;29;20048;-77
2023/07/12 09:39:08;;;;;;;12.32;5.07;;;;;;;;;;4879442;29;20041;-77
2023/07/12 09:42:01;;;;;;;8.25;5.32;;;;;;;;;;4892714;29;20398;-77
2023/07/12 09:44:47;;;;;;;8.95;5.43;;;;;;;;;;4885990;29;20041;-76
2023/07/12 09:47:44;;;;;;;10.32;5.05;;;;;;;;;;4900149;29;20049;-77
2023/07/12 09:50:49;;;;;;;9.02;5.38;;;;;;;;;;4880606;29;20068;-78
2023/07/12 09:53:45;;;;;;;8.55;5.03;;;;;;;;;;4879251;29;20491;-77
2023/07/12 09:56:54;;;;;;;9.35;5.22;;;;;;;;;;4879109;29;20044;-77
2023/07/12 09:59:47;;;;;;;7.18;4.30;;;;;;;;;;4885539;29;20056;-77
2023/07/12 10:03:07;;;;;;;9.10;4.22;;;;;;;;;;4878920;29;20395;-76
2023/07/12 10:06:09;;;;;;;6.00;4.50;;;;;;;;;;4900096;29;20048;-77
2023/07/12 10:08:59;;;;;;;7.85;4.90;;;;;;;;;;4879230;29;20056;-77
2023/07/12 10:11:58;;;;;;;5.63;4.70;;;;;;;;;;4879074;29;20044;-76
2023/07/12 10:14:45;;;;;;;6.28;4.43;;;;;;;;;;4879900;29;20399;-78
2023/07/12 10:17:38;;;;;;;6.85;4.22;;;;;;;;;;4893026;29;20044;-77
2023/07/12 10:20:24;;;;;;;7.72;4.65;;;;;;;;;;4880979;29;20041;-78
2023/07/12 10:23:12;;;;;;;8.57;4.15;;;;;;;;;;4891777;29;20511;-78
2023/07/12 10:26:00;;;;;;;9.05;4.55;;;;;;;;;;4891503;29;20048;-76
2023/07/12 10:28:55;;;;;;;8.90;4.32;;;;;;;;;;4878560;29;20048;-78
2023/07/12 10:31:46;;;;;;;6.63;4.10;;;;;;;;;;4891793;29;20049;-77
2023/07/12 10:34:38;;;;;;;7.88;4.10;;;;;;;;;;4885392;29;20049;-78
2023/07/12 10:38:09;;;;;;;7.95;4.20;;;;;;;;;;4891133;29;20041;-76
2023/07/12 10:41:04;;;;;;;6.10;3.75;;;;;;;;;;4883638;29;20053;-76
2023/07/12 10:43:59;;;;;;;6.72;4.63;;;;;;;;;;4878146;29;20044;-76
2023/07/12 10:46:49;;;;;;;6.70;4.30;;;;;;;;;;4885648;29;20479;-75
2023/07/12 10:49:45;;;;;;;9.95;3.80;;;;;;;;;;4890876;29;20040;-76
2023/07/12 10:52:53;;;;;;;7.68;3.75;;;;;;;;;;4878657;29;20060;-75
2023/07/12 10:55:44;;;;;;;10.18;4.22;;;;;;;;;;4878137;29;20040;-75
2023/07/12 10:58:56;;;;;;;7.68;3.88;;;;;;;;;;4888474;29;20056;-77
2023/07/12 11:01:41;;;;;;;4.97;3.10;;;;;;;;;;4878000;29;20052;-75
2023/07/12 11:04:35;;;;;;;6.95;3.97;;;;;;;;;;4898946;29;20053;-75
2023/07/12 11:07:20;;;;;;;8.48;3.92;;;;;;;;;;4891274;29;20045;-74
2023/07/12 11:10:16;;;;;;;9.10;3.70;;;;;;;;;;4904935;29;20048;-74
2023/07/12 11:13:11;;;;;;;5.57;3.85;;;;;;;;;;4897931;29;20044;-77
2023/07/12 11:16:12;;;;;;;7.68;3.70;;;;;;;;;;4898814;29;20048;-77
2023/07/12 11:18:58;;;;;;;7.65;3.92;;;;;;;;;;4905179;29;20056;-76
2023/07/12 11:21:43;;;;;;;7.05;3.60;;;;;;;;;;4899321;29;20056;-75
2023/07/12 11:24:45;;;;;;;6.57;3.50;;;;;;;;;;4904923;29;20049;-77
2023/07/12 11:27:39;;;;;;;9.38;3.80;;;;;;;;;;4898458;29;20045;-76
2023/07/12 11:30:30;;;;;;;11.13;3.60;;;;;;;;;;4899172;29;20040;-75
2023/07/12 11:33:31;;;;;;;7.32;3.78;;;;;;;;;;4904950;29;20399;-76
2023/07/12 11:36:22;;;;;;;7.63;3.53;;;;;;;;;;4898767;29;20407;-76
2023/07/12 11:39:18;;;;;;;12.23;3.45;;;;;;;;;;4904742;29;20053;-74
2023/07/12 11:42:08;;;;;;;7.03;3.58;;;;;;;;;;4905043;29;20044;-75
2023/07/12 11:45:04;;;;;;;7.03;3.50;;;;;;;;;;4898338;29;20045;-75
2023/07/12 11:47:52;;;;;;;8.70;3.30;;;;;;;;;;4904610;29;20049;-77
2023/07/12 11:50:38;;;;;;;6.65;3.33;;;;;;;;;;4898355;29;20436;-77
2023/07/12 11:53:24;;;;;;;9.70;4.00;;;;;;;;;;4904640;29;20398;-76
2023/07/12 11:56:15;;;;;;;8.77;3.70;;;;;;;;;;4901871;29;20478;-75
2023/07/12 11:59:02;;;;;;;9.57;3.55;;;;;;;;;;4903845;29;20041;-76
2023/07/12 12:01:49;;;;;;;8.02;3.17;;;;;;;;;;4908710;29;20419;-76
2023/07/12 12:04:35;;;;;;;8.52;3.33;;;;;;;;;;4901947;29;20053;-75
2023/07/12 12:07:27;;;;;;;6.13;3.50;;;;;;;;;;4908144;29;20040;-74
2023/07/12 12:10:29;;;;;;;7.72;3.15;;;;;;;;;;4901816;29;20052;-76
2023/07/12 12:13:20;;;;;;;9.63;3.55;;;;;;;;;;4901965;29;20048;-77
2023/07/12 12:16:18;;;;;;;8.57;3.30;;;;;;;;;;4901869;29;20048;-75
2023/07/12 12:19:16;;;;;;;10.57;3.50;;;;;;;;;;4908094;29;20478;-76
2023/07/12 12:22:12;;;;;;;9.45;3.40;;;;;;;;;;4902110;29;20394;-76
2023/07/12 12:25:00;;;;;;;7.05;3.47;;;;;;;;;;4908049;29;20390;-77
2023/07/12 12:27:48;;;;;;;10.20;3.50;;;;;;;;;;4907845;29;20040;-76
2023/07/12 12:30:34;;;;;;;9.20;3.75;;;;;;;;;;4907980;29;20398;-76
2023/07/12 12:33:25;;;;;;;8.57;3.58;;;;;;;;;;4901589;29;20048;-76
2023/07/12 12:36:31;;;;;;;9.32;4.00;;;;;;;;;;4907870;29;20394;-77
2023/07/12 12:39:20;;;;;;;5.65;3.25;;;;;;;;;;4907936;29;20044;-77
2023/07/12 12:42:21;;;;;;;10.35;3.33;;;;;;;;;;4901345;29;20056;-76
2023/07/12 12:45:08;;;;;;;9.93;3.35;;;;;;;;;;4908245;29;20483;-77
2023/07/12 12:47:53;;;;;;;7.10;3.42;;;;;;;;;;4887191;29;20052;-76
2023/07/12 12:50:38;;;;;;;9.13;3.47;;;;;;;;;;4901462;29;20044;-76
2023/07/12 12:53:23;;;;;;;10.07;3.55;;;;;;;;;;4907388;29;20406;-76
2023/07/12 12:56:13;;;;;;;8.45;3.88;;;;;;;;;;4901160;29;20052;-75
2023/07/12 12:59:00;;;;;;;8.80;3.70;;;;;;;;;;4902743;29;20500;-76
2023/07/12 13:01:47;;;;;;;10.73;4.00;;;;;;;;;;4907151;29;20048;-75
2023/07/12 13:04:44;;;;;;;11.13;3.60;;;;;;;;;;4901393;29;20052;-78
2023/07/12 13:07:38;;;;;;;8.50;3.40;;;;;;;;;;4907229;29;20041;-77
2023/07/12 13:10:24;;;;;;;10.15;3.70;;;;;;;;;;4907157;29;20048;-75
2023/07/12 13:13:16;;;;;;;6.57;3.72;;;;;;;;;;4901057;29;20060;-76
2023/07/12 13:16:02;;;;;;;13.15;4.30;;;;;;;;;;4900644;29;20041;-77
2023/07/12 13:18:50;;;;;;;10.38;3.80;;;;;;;;;;4886136;29;20048;-76
2023/07/12 13:21:36;;;;;;;8.77;3.97;;;;;;;;;;4906986;29;20044;-85
2023/07/12 13:24:23;;;;;;;8.77;3.75;;;;;;;;;;4900945;29;20056;-77
2023/07/12 13:27:31;;;;;;;11.80;3.90;;;;;;;;;;4901409;29;20036;-78
2023/07/12 13:30:18;;;;;;;6.35;3.83;;;;;;;;;;4892500;29;20411;-78
2023/07/12 13:33:09;;;;;;;11.82;4.35;;;;;;;;;;4906121;29;20044;-78
2023/07/12 13:35:59;;;;;;;12.45;3.90;;;;;;;;;;4900593;29;20048;-80
2023/07/12 13:38:45;;;;;;;10.43;3.78;;;;;;;;;;4906715;29;20395;-76
2023/07/12 13:41:30;;;;;;;8.73;3.58;;;;;;;;;;4900119;29;20053;-77
2023/07/12 13:44:15;;;;;;;13.63;4.25;;;;;;;;;;4905621;29;20048;-77
2023/07/12 13:47:01;;;;;;;11.30;3.30;;;;;;;;;;4900559;29;20049;-77
2023/07/12 13:49:47;;;;;;;11.70;3.92;;;;;;;;;;4900589;29;20414;-78
2023/07/12 13:52:33;;;;;;;12.77;4.18;;;;;;;;;;4906946;29;20044;-78
2023/07/12 13:55:19;;;;;;;13.90;3.78;;;;;;;;;;4900384;29;20036;-77
2023/07/12 13:58:04;;;;;;;7.80;3.55;;;;;;;;;;4890573;29;20502;-79
2023/07/12 14:00:53;;;;;;;13.70;3.88;;;;;;;;;;4906935;29;20048;-75
2023/07/12 14:03:38;;;;;;;9.10;4.20;;;;;;;;;;4899412;29;20040;-76
2023/07/12 14:06:23;;;;;;;9.85;3.95;;;;;;;;;;4906350;29;20048;-77
2023/07/12 14:09:09;;;;;;;11.00;3.67;;;;;;;;;;4906241;29;20041;-77
2023/07/12 14:11:55;;;;;;;10.60;4.55;;;;;;;;;;4906288;29;20413;-77
2023/07/12 14:14:43;;;;;;;12.32;4.07;;;;;;;;;;4906044;29;20040;-75
2023/07/12 14:17:28;;;;;;;12.20;3.95;;;;;;;;;;4898971;29;20052;-77
2023/07/12 14:20:14;;;;;;;11.13;4.00;;;;;;;;;;4905743;29;20045;-76
2023/07/12 14:23:00;;;;;;;12.93;4.18;;;;;;;;;;4899679;29;20060;-77
2023/07/12 14:25:45;;;;;;;8.98;4.13;;;;;;;;;;4899582;29;20052;-77
2023/07/12 14:28:32;;;;;;;19.55;4.43;;;;;;;;;;4899582;29;20048;-77
2023/07/12 14:34:33;;;;;;;8.85;3.33;;;;;;;;;;4905533;29;20052;-78
2023/07/12 14:37:20;;;;;;;13.07;4.10;;;;;;;;;;4905646;29;20048;-78
2023/07/12 14:40:06;;;;;;;10.48;4.10;;;;;;;;;;4899341;29;20048;-77
2023/07/12 14:42:52;;;;;;;13.55;4.13;;;;;;;;;;4905854;29;20044;-76
2023/07/12 14:45:37;;;;;;;14.70;4.10;;;;;;;;;;4905444;29;20052;-76
2023/07/12 14:48:23;;;;;;;9.18;3.85;;;;;;;;;;4899137;29;20048;-76
2023/07/12 14:51:30;;;;;;;7.22;3.30;;;;;;;;;;4899214;29;20490;-77
2023/07/12 14:54:17;;;;;;;16.30;3.85;;;;;;;;;;4898996;29;20044;-77
2023/07/12 14:57:08;;;;;;;11.45;3.60;;;;;;;;;;4898842;29;20040;-78
2023/07/12 14:59:54;;;;;;;10.23;4.18;;;;;;;;;;4885576;29;20495;-77
2023/07/12 15:02:40;;;;;;;11.73;4.15;;;;;;;;;;4898971;29;20421;-77
2023/07/12 15:05:26;;;;;;;13.32;4.25;;;;;;;;;;4898640;29;20044;-78
2023/07/12 15:08:26;;;;;;;6.53;3.70;;;;;;;;;;4898501;29;20502;-78
2023/07/12 15:11:22;;;;;;;9.90;3.97;;;;;;;;;;4898702;29;20491;-78
2023/07/12 15:14:10;;;;;;;14.68;4.03;;;;;;;;;;4905084;29;20479;-78
2023/07/12 15:16:56;;;;;;;19.13;4.38;;;;;;;;;;4905683;29;20048;-78
2023/07/12 15:19:42;;;;;;;18.85;4.18;;;;;;;;;;4905096;29;20048;-77
2023/07/12 15:22:29;;;;;;;12.23;3.92;;;;;;;;;;4904654;29;20060;-77
2023/07/12 15:25:15;;;;;;;8.65;3.85;;;;;;;;;;4898614;29;20048;-77
2023/07/12 15:28:00;;;;;;;7.88;3.58;;;;;;;;;;4904702;29;20483;-79
2023/07/12 15:30:47;;;;;;;9.98;3.70;;;;;;;;;;4898550;29;20040;-78
2023/07/12 15:33:32;;;;;;;14.60;4.25;;;;;;;;;;4898614;29;20056;-77
2023/07/12 15:36:19;;;;;;;9.88;4.03;;;;;;;;;;4904629;29;20042;-75
2023/07/12 15:39:04;;;;;;;8.98;4.40;;;;;;;;;;4898424;29;20049;-75
2023/07/12 15:41:50;;;;;;;9.38;4.30;;;;;;;;;;4905181;29;20056;-75
2023/07/12 15:44:36;;;;;;;10.70;3.63;;;;;;;;;;4904632;29;20406;-75
2023/07/12 15:47:22;;;;;;;9.55;4.07;;;;;;;;;;4898406;29;20479;-74
2023/07/12 15:50:14;;;;;;;7.55;3.75;;;;;;;;;;4898564;29;20040;-76
2023/07/12 15:53:00;;;;;;;6.88;3.78;;;;;;;;;;4904624;29;20052;-74
2023/07/12 15:55:50;;;;;;;12.00;3.90;;;;;;;;;;4898425;29;20048;-74
2023/07/12 15:58:34;;;;;;;9.88;4.10;;;;;;;;;;4901064;29;20040;-75
2023/07/12 16:01:23;;;;;;;10.65;3.60;;;;;;;;;;4898219;29;20399;-74
2023/07/12 16:04:14;;;;;;;10.05;4.10;;;;;;;;;;4884263;29;20041;-75
2023/07/12 16:06:59;;;;;;;9.15;3.75;;;;;;;;;;4904008;29;20374;-74
2023/07/12 16:09:45;;;;;;;15.05;3.85;;;;;;;;;;4904288;29;20486;-75
2023/07/12 16:12:30;;;;;;;12.43;3.78;;;;;;;;;;4898214;29;20041;-74
2023/07/12 16:15:17;;;;;;;9.77;3.90;;;;;;;;;;4898395;29;20048;-76
2023/07/12 16:18:09;;;;;;;8.18;3.85;;;;;;;;;;4904375;29;20040;-75
2023/07/12 16:20:57;;;;;;;6.32;3.53;;;;;;;;;;4904192;29;20040;-74
2023/07/12 16:23:44;;;;;;;9.18;4.35;;;;;;;;;;4904219;29;20115;-75
2023/07/12 16:26:34;;;;;;;11.20;3.92;;;;;;;;;;4898009;29;20044;-75
2023/07/12 16:29:20;;;;;;;13.82;3.90;;;;;;;;;;4904219;29;20053;-76
2023/07/12 16:32:11;;;;;;;10.02;4.15;;;;;;;;;;4898112;29;20045;-75
2023/07/12 16:34:56;;;;;;;7.82;3.95;;;;;;;;;;4897443;29;20056;-74
2023/07/12 16:37:42;;;;;;;7.00;4.03;;;;;;;;;;4904145;29;20044;-73
2023/07/12 16:40:27;;;;;;;10.43;4.53;;;;;;;;;;4898444;29;20044;-77
2023/07/12 16:43:16;;;;;;;8.00;3.80;;;;;;;;;;4901391;29;20048;-76
2023/07/12 16:46:01;;;;;;;13.93;4.25;;;;;;;;;;4907545;29;20052;-75
2023/07/12 16:48:48;;;;;;;13.98;4.20;;;;;;;;;;4901065;29;20056;-75
2023/07/12 16:51:50;;;;;;;11.52;4.25;;;;;;;;;;4901681;29;20048;-76
2023/07/12 16:54:36;;;;;;;9.02;4.28;;;;;;;;;;4901122;29;20048;-75
2023/07/12 16:57:23;;;;;;;13.45;4.07;;;;;;;;;;4908134;29;20053;-77
2023/07/12 17:00:10;;;;;;;11.77;4.20;;;;;;;;;;4889196;29;20407;-76
2023/07/12 17:02:55;;;;;;;8.40;3.80;;;;;;;;;;4888817;29;20049;-76
2023/07/12 17:05:41;;;;;;;11.52;4.13;;;;;;;;;;4888299;29;20049;-76
2023/07/12 17:08:28;;;;;;;7.47;4.03;;;;;;;;;;4882352;29;20045;-76
2023/07/12 17:11:15;;;;;;;9.75;4.00;;;;;;;;;;4887631;29;20045;-76
2023/07/12 17:14:00;;;;;;;10.65;4.28;;;;;;;;;;4888277;29;20072;-74
2023/07/12 17:16:47;;;;;;;8.82;4.38;;;;;;;;;;4888583;29;20049;-74
2023/07/12 17:19:33;;;;;;;11.30;4.18;;;;;;;;;;4882650;29;20049;-77
2023/07/12 17:22:19;;;;;;;12.05;4.38;;;;;;;;;;4881916;29;20049;-76
2023/07/12 17:25:08;;;;;;;11.73;4.57;;;;;;;;;;4888155;29;20040;-75
2023/07/12 17:27:54;;;;;;;8.68;4.68;;;;;;;;;;4888185;29;20044;-75
2023/07/12 17:30:40;;;;;;;13.18;5.03;;;;;;;;;;4888505;29;20041;-76
2023/07/12 17:33:26;;;;;;;19.33;5.50;;;;;;;;;;4881746;29;20448;-75
2023/07/12 17:36:15;;;;;;;12.20;5.28;;;;;;;;;;4881198;29;20045;-76
2023/07/12 17:39:04;;;;;;;17.75;5.72;;;;;;;;;;4887943;29;20041;-76
2023/07/12 17:41:56;;;;;;;23.38;5.07;;;;;;;;;;4887635;29;20045;-76
2023/07/12 17:44:49;;;;;;;11.40;5.68;;;;;;;;;;4882334;29;20092;-77
2023/07/12 17:47:50;;;;;;;16.80;5.30;;;;;;;;;;4887769;29;20044;-80
2023/07/12 17:51:01;;;;;;;10.98;4.63;;;;;;;;;;4882417;29;20044;-79
2023/07/12 17:53:58;;;;;;;12.85;4.88;;;;;;;;;;4873855;29;20483;-77
2023/07/12 17:56:47;;;;;;;8.13;4.47;;;;;;;;;;4887824;29;20037;-78
2023/07/12 17:59:37;;;;;;;16.23;5.20;;;;;;;;;;4851446;29;20054;-76
2023/07/12 18:02:25;;;;;;;11.68;4.90;;;;;;;;;;4862650;29;20057;-76
2023/07/12 18:05:22;;;;;;;9.05;4.97;;;;;;;;;;4862534;29;20049;-76
2023/07/12 18:08:13;;;;;;;8.27;4.53;;;;;;;;;;4863185;29;20045;-76
2023/07/12 18:10:59;;;;;;;14.15;4.70;;;;;;;;;;4862621;29;20045;-75
2023/07/12 18:13:44;;;;;;;11.13;5.00;;;;;;;;;;4861961;29;20046;-74
2023/07/12 18:16:31;;;;;;;13.32;5.00;;;;;;;;;;4868632;29;20049;-75
2023/07/12 18:19:16;;;;;;;10.02;4.82;;;;;;;;;;4862244;29;20045;-75
2023/07/12 18:22:02;;;;;;;12.77;4.60;;;;;;;;;;4868758;29;20049;-74
2023/07/12 18:24:48;;;;;;;16.15;5.13;;;;;;;;;;4868513;29;20049;-75
2023/07/12 18:27:33;;;;;;;11.65;4.97;;;;;;;;;;4862134;29;20488;-74
2023/07/12 18:30:19;;;;;;;14.10;4.68;;;;;;;;;;4862065;29;20045;-78
2023/07/12 18:33:15;;;;;;;12.15;5.03;;;;;;;;;;4868718;29;20049;-78